createdAt,value
2022-09-01T00:01:50.462Z,57.50
2022-09-01T00:04:21.834Z,57.50
2022-09-01T00:06:49.005Z,57.70
2022-09-01T00:09:19.986Z,57.70
2022-09-01T00:11:50.959Z,57.80
2022-09-01T00:14:24.105Z,58.00
2022-09-01T00:16:59.988Z,58.10
2022-09-01T00:19:27.420Z,58.20
2022-09-01T00:21:54.228Z,58.40
2022-09-01T00:24:21.066Z,58.60
2022-09-01T00:26:48.368Z,58.80
2022-09-01T00:29:16.253Z,58.80
2022-09-01T00:31:43.089Z,58.90
2022-09-01T00:34:10.587Z,59.10
2022-09-01T00:36:37.660Z,59.30
2022-09-01T00:39:06.821Z,59.40
2022-09-01T00:41:38.188Z,59.50
2022-09-01T00:44:13.437Z,59.50
2022-09-01T00:46:55.646Z,59.60
2022-09-01T00:49:35.212Z,59.80
2022-09-01T00:52:26.941Z,59.80
2022-09-01T00:55:00.096Z,60.00
2022-09-01T00:57:27.605Z,60.00
2022-09-01T00:59:59.215Z,60.10
2022-09-01T01:02:26.473Z,60.20
2022-09-01T01:04:56.036Z,60.20
2022-09-01T01:07:24.028Z,60.20
2022-09-01T01:09:51.846Z,60.40
2022-09-01T01:12:18.990Z,60.40
2022-09-01T01:14:50.480Z,60.40
2022-09-01T01:17:19.525Z,60.60
2022-09-01T01:20:11.743Z,60.70
2022-09-01T01:23:06.527Z,61.60
2022-09-01T01:25:36.384Z,61.00
2022-09-01T01:28:05.526Z,61.00
2022-09-01T01:30:33.803Z,61.00
2022-09-01T01:33:01.841Z,61.10
2022-09-01T01:35:31.876Z,61.10
2022-09-01T01:37:58.797Z,61.00
2022-09-01T01:40:25.981Z,60.90
2022-09-01T01:42:54.364Z,61.00
2022-09-01T01:45:23.627Z,61.10
2022-09-01T01:47:53.557Z,61.10
2022-09-01T01:50:26.571Z,61.20
2022-09-01T01:52:58.326Z,61.10
2022-09-01T01:55:28.994Z,61.00
2022-09-01T01:57:56.620Z,61.00
2022-09-01T02:00:30.779Z,61.00
2022-09-01T02:02:58.716Z,61.00
2022-09-01T02:05:32.151Z,60.90
2022-09-01T02:08:04.971Z,60.90
2022-09-01T02:10:42.114Z,60.80
2022-09-01T02:13:16.230Z,60.70
2022-09-01T02:15:54.462Z,60.60
2022-09-01T02:18:25.008Z,60.60
2022-09-01T02:20:53.263Z,60.50
2022-09-01T02:23:25.191Z,60.40
2022-09-01T02:28:45.402Z,60.30
2022-09-01T02:31:12.569Z,60.10
2022-09-01T02:33:44.098Z,60.10
2022-09-01T02:36:15.249Z,60.00
2022-09-01T02:38:45.892Z,60.10
2022-09-01T02:41:14.389Z,60.20
2022-09-01T02:43:44.500Z,60.30
2022-09-01T02:46:11.895Z,60.20
2022-09-01T02:48:42.739Z,60.20
2022-09-01T02:51:14.171Z,60.10
2022-09-01T02:53:42.768Z,60.10
2022-09-01T02:56:17.082Z,60.00
2022-09-01T02:58:46.125Z,60.20
2022-09-01T03:01:21.462Z,60.10
2022-09-01T03:03:49.536Z,60.00
2022-09-01T03:06:19.307Z,59.90
2022-09-01T03:08:46.978Z,59.90
2022-09-01T03:11:13.933Z,60.00
2022-09-01T03:13:41.519Z,60.00
2022-09-01T03:16:09.763Z,59.80
2022-09-01T03:18:37.622Z,59.80
2022-09-01T03:21:08.363Z,59.70
2022-09-01T03:23:35.989Z,59.60
2022-09-01T03:26:03.369Z,59.50
2022-09-01T03:28:30.351Z,59.40
2022-09-01T03:30:58.692Z,59.30
2022-09-01T03:33:28.036Z,59.30
2022-09-01T03:35:55.977Z,59.30
2022-09-01T03:38:24.487Z,59.30
2022-09-01T03:40:54.855Z,59.30
2022-09-01T03:43:24.954Z,59.40
2022-09-01T03:45:51.989Z,59.70
2022-09-01T03:48:19.502Z,59.90
2022-09-01T03:50:47.138Z,59.90
2022-09-01T03:53:17.916Z,60.00
2022-09-01T03:55:46.844Z,60.00
2022-09-01T03:58:19.000Z,60.30
2022-09-01T04:00:49.445Z,60.60
2022-09-01T04:03:28.525Z,60.70
2022-09-01T04:05:56.183Z,60.80
2022-09-01T04:08:33.367Z,60.80
2022-09-01T04:11:10.676Z,60.90
2022-09-01T04:13:39.519Z,61.00
2022-09-01T04:16:10.813Z,61.10
2022-09-01T04:18:40.179Z,61.20
2022-09-01T04:21:08.179Z,61.30
2022-09-01T04:23:37.042Z,61.40
2022-09-01T04:26:10.462Z,61.50
2022-09-01T04:28:40.695Z,61.60
2022-09-01T04:31:09.941Z,61.40
2022-09-01T04:33:39.935Z,61.50
2022-09-01T04:36:23.652Z,61.60
2022-09-01T04:38:56.441Z,61.60
2022-09-01T04:41:25.800Z,61.70
2022-09-01T04:43:56.417Z,61.70
2022-09-01T04:46:24.356Z,61.60
2022-09-01T04:48:53.247Z,61.60
2022-09-01T04:51:20.811Z,61.50
2022-09-01T04:53:48.916Z,61.40
2022-09-01T04:56:20.725Z,61.40
2022-09-01T04:58:48.033Z,61.50
2022-09-01T05:01:20.522Z,61.40
2022-09-01T05:03:57.367Z,61.50
2022-09-01T05:06:24.154Z,61.50
2022-09-01T05:08:52.419Z,61.50
2022-09-01T05:11:19.658Z,61.70
2022-09-01T05:13:48.472Z,61.70
2022-09-01T05:16:24.087Z,62.00
2022-09-01T05:18:54.229Z,62.10
2022-09-01T05:21:26.406Z,62.20
2022-09-01T05:23:54.227Z,62.30
2022-09-01T05:26:28.115Z,62.50
2022-09-01T05:29:01.035Z,62.80
2022-09-01T05:31:35.070Z,63.00
2022-09-01T05:34:03.287Z,63.00
2022-09-01T05:36:33.780Z,63.70
2022-09-01T05:39:01.861Z,63.10
2022-09-01T05:41:29.016Z,63.00
2022-09-01T05:44:00.271Z,63.10
2022-09-01T05:46:28.220Z,63.10
2022-09-01T05:48:55.923Z,63.10
2022-09-01T05:51:43.719Z,63.30
2022-09-01T05:54:12.207Z,63.50
2022-09-01T05:56:44.119Z,63.50
2022-09-01T05:59:28.591Z,63.70
2022-09-01T06:01:56.583Z,63.70
2022-09-01T06:04:25.684Z,64.40
2022-09-01T06:07:10.197Z,63.60
2022-09-01T06:09:44.487Z,63.60
2022-09-01T06:12:17.802Z,63.70
2022-09-01T06:14:49.184Z,63.70
2022-09-01T06:17:19.550Z,63.70
2022-09-01T06:19:46.732Z,63.90
2022-09-01T06:22:13.705Z,63.90
2022-09-01T06:24:40.905Z,64.00
2022-09-01T06:27:10.690Z,64.00
2022-09-01T06:29:41.662Z,64.00
2022-09-01T06:32:12.597Z,64.00
2022-09-01T06:34:42.605Z,63.90
2022-09-01T06:37:10.961Z,63.90
2022-09-01T06:39:38.193Z,63.90
2022-09-01T06:42:06.361Z,63.90
2022-09-01T06:44:33.877Z,63.80
2022-09-01T06:47:01.094Z,63.70
2022-09-01T06:49:34.627Z,63.60
2022-09-01T06:52:05.638Z,63.40
2022-09-01T06:54:34.171Z,63.30
2022-09-01T06:58:03.311Z,63.20
2022-09-01T06:59:52.609Z,63.00
2022-09-01T07:02:22.328Z,62.80
2022-09-01T07:04:53.620Z,62.80
2022-09-01T07:10:23.372Z,62.60
2022-09-01T07:13:11.440Z,62.60
2022-09-01T07:18:31.198Z,62.60
2022-09-01T07:21:35.897Z,62.60
2022-09-01T07:23:49.134Z,62.50
2022-09-01T07:26:35.713Z,62.50
2022-09-01T07:29:06.145Z,62.40
2022-09-01T07:34:41.914Z,62.30
2022-09-01T07:38:46.932Z,62.30
2022-09-01T07:45:47.253Z,62.50
2022-09-01T07:53:53.252Z,62.40
2022-09-01T07:56:23.064Z,62.40
2022-09-01T07:58:51.993Z,62.50
2022-09-01T08:01:21.954Z,62.60
2022-09-01T08:03:52.315Z,62.80
2022-09-01T08:06:21.200Z,62.60
2022-09-01T08:08:50.778Z,62.30
2022-09-01T08:11:29.566Z,62.10
2022-09-01T08:14:01.252Z,61.90
2022-09-01T08:16:39.406Z,61.90
2022-09-01T08:19:16.596Z,62.10
2022-09-01T08:21:43.644Z,62.00
2022-09-01T08:24:10.352Z,61.90
2022-09-01T08:26:37.529Z,61.60
2022-09-01T08:29:05.025Z,61.50
2022-09-01T08:31:32.483Z,61.40
2022-09-01T08:34:00.041Z,61.20
2022-09-01T08:36:27.065Z,61.10
2022-09-01T08:38:54.075Z,60.90
2022-09-01T08:41:47.127Z,60.70
2022-09-01T08:44:32.396Z,60.40
2022-09-01T08:47:03.693Z,60.40
2022-09-01T08:49:42.594Z,60.30
2022-09-01T08:52:32.103Z,60.30
2022-09-01T08:55:16.743Z,60.30
2022-09-01T08:57:45.527Z,59.70
2022-09-01T09:00:18.192Z,60.00
2022-09-01T09:03:07.706Z,59.80
2022-09-01T09:06:07.754Z,59.00
2022-09-01T09:08:59.734Z,58.80
2022-09-01T09:11:51.416Z,59.10
2022-09-01T09:14:52.934Z,59.00
2022-09-01T09:17:25.625Z,59.20
2022-09-01T09:19:53.695Z,59.00
2022-09-01T09:22:21.478Z,58.70
2022-09-01T09:25:00.276Z,58.40
2022-09-01T09:27:42.366Z,58.30
2022-09-01T09:30:11.785Z,57.80
2022-09-01T09:35:50.696Z,56.80
2022-09-01T09:38:28.884Z,56.40
2022-09-01T09:41:17.310Z,55.90
2022-09-01T09:44:05.581Z,55.60
2022-09-01T09:46:32.366Z,55.10
2022-09-01T09:49:34.844Z,55.50
2022-09-01T09:52:10.223Z,55.50
2022-09-01T09:54:40.229Z,55.10
2022-09-01T09:57:14.463Z,54.90
2022-09-01T09:59:58.885Z,54.60
2022-09-01T10:02:27.794Z,54.40
2022-09-01T10:04:57.092Z,54.20
2022-09-01T10:07:29.210Z,54.30
2022-09-01T10:09:58.891Z,54.00
2022-09-01T10:12:26.413Z,53.80
2022-09-01T10:15:13.944Z,53.30
2022-09-01T10:17:44.161Z,52.60
2022-09-01T10:20:25.358Z,52.30
2022-09-01T10:22:53.435Z,52.10
2022-09-01T10:25:23.426Z,52.20
2022-09-01T10:27:58.361Z,52.00
2022-09-01T10:30:26.735Z,52.00
2022-09-01T10:33:00.441Z,51.80
2022-09-01T10:35:34.666Z,51.40
2022-09-01T10:38:11.916Z,50.70
2022-09-01T10:40:48.904Z,50.10
2022-09-01T10:43:45.061Z,50.60
2022-09-01T10:46:48.990Z,49.90
2022-09-01T10:49:29.701Z,49.70
2022-09-01T10:52:03.197Z,49.60
2022-09-01T10:54:56.469Z,49.90
2022-09-01T10:57:44.052Z,49.30
2022-09-01T11:00:38.081Z,48.80
2022-09-01T11:06:18.204Z,49.00
2022-09-01T11:09:01.076Z,48.60
2022-09-01T11:11:33.728Z,48.10
2022-09-01T11:14:01.325Z,48.10
2022-09-01T11:16:53.711Z,48.50
2022-09-01T11:19:42.094Z,48.70
2022-09-01T11:22:15.449Z,48.60
2022-09-01T11:24:42.494Z,48.90
2022-09-01T11:27:33.847Z,49.10
2022-09-01T11:30:08.414Z,49.00
2022-09-01T11:32:38.244Z,48.60
2022-09-01T11:35:21.751Z,48.40
2022-09-01T11:37:50.471Z,48.10
2022-09-01T11:40:29.664Z,48.60
2022-09-01T11:43:12.535Z,48.70
2022-09-01T11:46:02.749Z,48.90
2022-09-01T11:48:31.047Z,48.10
2022-09-01T11:51:01.727Z,48.30
2022-09-01T11:53:28.982Z,47.80
2022-09-01T11:56:11.856Z,48.00
2022-09-01T11:58:39.265Z,48.10
2022-09-01T12:01:32.538Z,48.20
2022-09-01T12:04:30.768Z,48.60
2022-09-01T12:07:02.326Z,48.60
2022-09-01T12:09:38.521Z,48.90
2022-09-01T12:12:08.616Z,48.40
2022-09-01T12:15:02.121Z,48.10
2022-09-01T12:17:22.341Z,48.10
2022-09-01T12:19:49.128Z,48.00
2022-09-01T12:22:20.564Z,47.80
2022-09-01T12:24:51.744Z,47.60
2022-09-01T12:27:19.384Z,47.70
2022-09-01T12:29:47.032Z,47.50
2022-09-01T12:32:15.423Z,47.30
2022-09-01T12:35:10.968Z,47.10
2022-09-01T12:37:38.499Z,47.20
2022-09-01T12:40:05.585Z,47.20
2022-09-01T12:42:40.922Z,47.10
2022-09-01T12:45:10.163Z,47.30
2022-09-01T12:47:37.515Z,47.20
2022-09-01T12:50:13.785Z,47.00
2022-09-01T12:52:48.511Z,46.70
2022-09-01T12:58:12.611Z,46.60
2022-09-01T13:01:01.703Z,46.80
2022-09-01T13:03:29.716Z,45.80
2022-09-01T13:06:02.397Z,46.40
2022-09-01T13:08:33.185Z,46.20
2022-09-01T13:11:07.113Z,46.40
2022-09-01T13:13:37.528Z,46.20
2022-09-01T13:16:13.068Z,46.60
2022-09-01T13:21:30.393Z,46.50
2022-09-01T13:23:57.634Z,46.40
2022-09-01T13:26:24.531Z,46.30
2022-09-01T13:28:51.726Z,45.90
2022-09-01T13:31:34.472Z,45.80
2022-09-01T13:34:10.994Z,45.60
2022-09-01T13:36:52.025Z,45.30
2022-09-01T13:39:20.305Z,45.00
2022-09-01T13:41:48.003Z,44.90
2022-09-01T13:44:16.944Z,44.70
2022-09-01T13:47:00.957Z,44.70
2022-09-01T13:52:19.176Z,45.30
2022-09-01T13:54:47.659Z,45.40
2022-09-01T13:57:16.395Z,45.20
2022-09-01T13:59:43.718Z,45.00
2022-09-01T14:02:10.991Z,44.80
2022-09-01T14:04:38.394Z,44.60
2022-09-01T14:07:05.724Z,44.40
2022-09-01T14:09:32.491Z,44.50
2022-09-01T14:11:59.606Z,44.40
2022-09-01T14:14:26.864Z,44.20
2022-09-01T14:16:54.043Z,44.10
2022-09-01T14:19:21.529Z,44.30
2022-09-01T14:21:49.625Z,44.40
2022-09-01T14:24:19.862Z,44.50
2022-09-01T14:26:48.020Z,44.50
2022-09-01T14:29:14.852Z,44.50
2022-09-01T14:31:43.472Z,44.30
2022-09-01T14:34:12.130Z,44.00
2022-09-01T14:36:39.450Z,43.70
2022-09-01T14:39:06.253Z,43.70
2022-09-01T14:41:33.327Z,43.30
2022-09-01T14:44:03.273Z,43.10
2022-09-01T14:46:34.393Z,43.20
2022-09-01T14:49:02.543Z,43.10
2022-09-01T14:54:18.202Z,42.60
2022-09-01T14:57:28.205Z,42.60
2022-09-01T14:59:32.591Z,42.80
2022-09-01T15:01:59.747Z,42.70
2022-09-01T15:04:27.873Z,42.30
2022-09-01T15:06:55.112Z,42.00
2022-09-01T15:09:22.418Z,41.80
2022-09-01T15:11:49.499Z,41.90
2022-09-01T15:14:16.296Z,41.90
2022-09-01T15:16:43.096Z,41.80
2022-09-01T15:19:12.810Z,41.70
2022-09-01T15:21:41.639Z,41.80
2022-09-01T15:24:09.159Z,41.80
2022-09-01T15:26:36.460Z,41.90
2022-09-01T15:29:03.998Z,41.90
2022-09-01T15:31:33.321Z,41.60
2022-09-01T15:34:02.447Z,40.80
2022-09-01T15:36:30.421Z,39.90
2022-09-01T15:38:58.537Z,39.20
2022-09-01T15:41:28.603Z,38.20
2022-09-01T15:43:56.269Z,37.70
2022-09-01T15:46:30.954Z,37.90
2022-09-01T15:48:59.818Z,38.10
2022-09-01T15:51:34.157Z,38.40
2022-09-01T15:54:30.170Z,39.00
2022-09-01T15:56:57.566Z,39.10
2022-09-01T15:59:24.325Z,39.50
2022-09-01T16:01:53.151Z,39.60
2022-09-01T16:04:24.073Z,40.00
2022-09-01T16:06:56.655Z,39.90
2022-09-01T16:09:26.444Z,40.10
2022-09-01T16:11:54.232Z,40.40
2022-09-01T16:14:23.446Z,40.20
2022-09-01T16:17:04.034Z,40.30
2022-09-01T16:19:49.635Z,40.40
2022-09-01T16:22:39.045Z,41.20
2022-09-01T16:25:21.967Z,40.30
2022-09-01T16:27:49.215Z,40.10
2022-09-01T16:30:22.605Z,40.30
2022-09-01T16:32:49.857Z,40.30
2022-09-01T16:35:19.802Z,40.30
2022-09-01T16:38:02.038Z,39.90
2022-09-01T16:40:42.164Z,39.40
2022-09-01T16:43:26.669Z,39.50
2022-09-01T16:45:53.470Z,39.70
2022-09-01T16:48:32.512Z,40.20
2022-09-01T16:51:27.736Z,40.40
2022-09-01T16:54:20.702Z,40.20
2022-09-01T16:56:50.428Z,40.30
2022-09-01T16:59:26.006Z,40.60
2022-09-01T17:02:27.459Z,40.70
2022-09-01T17:05:30.995Z,40.70
2022-09-01T17:08:06.047Z,40.70
2022-09-01T17:10:41.127Z,40.80
2022-09-01T17:13:38.088Z,40.80
2022-09-01T17:16:11.970Z,41.00
2022-09-01T17:18:48.274Z,41.10
2022-09-01T17:21:22.529Z,41.20
2022-09-01T17:24:30.466Z,41.40
2022-09-01T17:27:04.753Z,41.40
2022-09-01T17:29:42.968Z,41.80
2022-09-01T17:32:35.773Z,41.90
2022-09-01T17:35:22.163Z,42.10
2022-09-01T17:38:00.565Z,42.00
2022-09-01T17:40:42.988Z,42.20
2022-09-01T17:43:21.505Z,42.30
2022-09-01T17:45:55.052Z,42.50
2022-09-01T17:48:45.595Z,42.70
2022-09-01T17:51:36.609Z,42.90
2022-09-01T17:54:27.716Z,43.00
2022-09-01T17:56:57.715Z,43.10
2022-09-01T17:59:41.896Z,43.50
2022-09-01T18:02:39.779Z,43.70
2022-09-01T18:05:15.318Z,44.40
2022-09-01T18:08:40.189Z,45.00
2022-09-01T18:11:25.812Z,46.40
2022-09-01T18:14:12.216Z,46.00
2022-09-01T18:16:58.748Z,46.40
2022-09-01T18:19:32.163Z,46.80
2022-09-01T18:22:03.649Z,46.90
2022-09-01T18:24:49.441Z,47.10
2022-09-01T18:27:16.189Z,47.30
2022-09-01T18:29:45.612Z,47.50
2022-09-01T18:32:42.019Z,47.80
2022-09-01T18:35:34.333Z,48.20
2022-09-01T18:38:28.695Z,48.60
2022-09-01T18:41:09.812Z,48.90
2022-09-01T18:44:04.955Z,49.20
2022-09-01T18:46:43.677Z,49.40
2022-09-01T18:49:35.162Z,49.50
2022-09-01T18:52:47.745Z,49.70
2022-09-01T18:55:47.582Z,49.70
2022-09-01T18:58:25.708Z,49.80
2022-09-01T19:01:05.828Z,49.80
2022-09-01T19:03:59.868Z,50.00
2022-09-01T19:06:26.555Z,49.70
2022-09-01T19:09:02.850Z,49.60
2022-09-01T19:11:42.252Z,49.60
2022-09-01T19:14:26.180Z,49.40
2022-09-01T19:17:43.962Z,49.40
2022-09-01T19:20:16.758Z,49.30
2022-09-01T19:22:54.868Z,49.50
2022-09-01T19:25:38.631Z,49.60
2022-09-01T19:28:15.047Z,49.90
2022-09-01T19:30:47.984Z,50.20
2022-09-01T19:33:20.109Z,50.30
2022-09-01T19:35:49.749Z,50.30
2022-09-01T19:38:27.440Z,50.40
2022-09-01T19:41:18.317Z,50.60
2022-09-01T19:43:45.089Z,50.60
2022-09-01T19:46:17.753Z,50.80
2022-09-01T19:49:06.161Z,51.20
2022-09-01T19:51:48.733Z,51.50
2022-09-01T19:54:35.384Z,51.60
2022-09-01T19:57:24.914Z,51.60
2022-09-01T20:00:16.357Z,51.60
2022-09-01T20:02:48.769Z,51.70
2022-09-01T20:05:39.815Z,51.70
2022-09-01T20:08:08.792Z,51.70
2022-09-01T20:10:36.079Z,51.60
2022-09-01T20:13:08.611Z,51.70
2022-09-01T20:15:54.182Z,51.70
2022-09-01T20:18:36.338Z,52.00
2022-09-01T20:21:09.003Z,52.00
2022-09-01T20:24:04.364Z,52.10
2022-09-01T20:26:52.478Z,52.30
2022-09-01T20:29:28.174Z,52.50
2022-09-01T20:31:58.770Z,52.70
2022-09-01T20:34:37.622Z,52.90
2022-09-01T20:37:34.042Z,53.30
2022-09-01T20:40:10.416Z,53.50
2022-09-01T20:43:01.721Z,53.60
2022-09-01T20:45:29.828Z,53.80
2022-09-01T20:48:01.703Z,53.90
2022-09-01T20:50:43.915Z,54.10
2022-09-01T20:53:13.466Z,54.40
2022-09-01T20:55:57.590Z,54.50
2022-09-01T20:58:32.835Z,54.70
2022-09-01T21:01:26.743Z,54.80
2022-09-01T21:04:30.795Z,54.70
2022-09-01T21:07:13.898Z,54.50
2022-09-01T21:10:06.772Z,54.20
2022-09-01T21:12:54.776Z,54.30
2022-09-01T21:15:24.536Z,54.70
2022-09-01T21:18:13.044Z,54.70
2022-09-01T21:21:21.343Z,54.80
2022-09-01T21:23:48.048Z,55.00
2022-09-01T21:26:15.042Z,55.00
2022-09-01T21:28:45.101Z,55.20
2022-09-01T21:31:14.932Z,55.30
2022-09-01T21:33:41.734Z,55.40
2022-09-01T21:36:08.925Z,55.40
2022-09-01T21:38:35.768Z,55.60
2022-09-01T21:41:03.567Z,55.60
2022-09-01T21:43:36.136Z,55.70
2022-09-01T21:46:03.295Z,55.90
2022-09-01T21:48:31.021Z,55.90
2022-09-01T21:50:57.753Z,55.90
2022-09-01T21:53:24.565Z,56.10
2022-09-01T21:55:51.312Z,56.10
2022-09-01T21:58:18.208Z,56.10
2022-09-01T22:00:47.473Z,56.20
2022-09-01T22:03:14.432Z,56.20
2022-09-01T22:05:42.405Z,56.30
2022-09-01T22:08:12.174Z,56.40
2022-09-01T22:10:49.466Z,56.50
2022-09-01T22:13:17.800Z,56.70
2022-09-01T22:15:48.028Z,56.60
2022-09-01T22:18:15.818Z,56.60
2022-09-01T22:20:43.087Z,56.60
2022-09-01T22:23:11.218Z,56.70
2022-09-01T22:25:42.862Z,56.80
2022-09-01T22:28:09.703Z,56.80
2022-09-01T22:30:36.554Z,56.90
2022-09-01T22:33:04.296Z,56.90
2022-09-01T22:35:31.009Z,57.00
2022-09-01T22:37:57.753Z,57.10
2022-09-01T22:40:24.550Z,57.20
2022-09-01T22:42:52.452Z,57.20
2022-09-01T22:45:19.254Z,57.40
2022-09-01T22:47:46.047Z,57.60
2022-09-01T22:50:13.161Z,57.70
2022-09-01T22:52:40.353Z,57.60
2022-09-01T22:55:08.841Z,57.60
2022-09-01T22:57:36.884Z,57.70
2022-09-01T23:00:08.520Z,57.70
2022-09-01T23:02:35.565Z,57.80
2022-09-01T23:05:02.424Z,57.80
2022-09-01T23:07:35.108Z,57.80
2022-09-01T23:10:01.961Z,57.90
2022-09-01T23:12:28.711Z,57.80
2022-09-01T23:14:55.471Z,57.90
2022-09-01T23:17:22.465Z,57.80
2022-09-01T23:19:49.411Z,57.90
2022-09-01T23:22:16.483Z,57.90
2022-09-01T23:24:43.628Z,58.00
2022-09-01T23:27:10.561Z,57.90
2022-09-01T23:29:37.887Z,57.90
2022-09-01T23:32:04.892Z,58.00
2022-09-01T23:34:31.779Z,58.10
2022-09-01T23:36:58.533Z,58.10
2022-09-01T23:39:25.425Z,58.20
2022-09-01T23:41:52.231Z,58.20
2022-09-01T23:44:19.057Z,58.20
2022-09-01T23:46:46.995Z,58.20
2022-09-01T23:49:16.013Z,58.30
2022-09-01T23:51:44.307Z,58.40
2022-09-01T23:54:13.768Z,58.30
2022-09-01T23:56:40.663Z,58.40
2022-09-01T23:59:08.020Z,58.40
